Wilson, Idaho
Current Conditions -  °F | °C
As of 9:55 PM on Saturday 25 Oct 2014 (Local Time) from KMAN Reporting Station
Clear Clear  
Wind Chill: 63°   Ceiling: Unl
Heat Index: 63°   Visibility: 10mi
Dew Point: 30°   Wind: 13mph
Humidity: 30%   Direction: 260°W
Pressure: 29.8"   Gusts: 21mph
Location:  43.3697°N, 116.52°W
Report Text: KMAN 260355Z AUTO 26011G18KT 10SM CLR 17/M01 A2980 RMK AO1
Loading
Personal Weather Stations






























Interactive Weather Map
Tropical Storm Tracking
New forecast layout! Learn more

10-Day Weather Forecast

Advertisements
Track Severe Weather on mobile